Terminal Aerodrome Forecast
Issued by NWS

Home | Current Version | Previous Version | Text Only | Print | Product List | Glossary On
Versions: 1 2 3 4 5 6 7 8 9 10 11 12 13 14 15 16 17 18 19 20 21 22 23 24 25
924
FTUS43 KGRB 191130
TAFMTW
TAF
KMTW 191130Z 1912/2012 23006KT 4SM BR OVC005
      TEMPO 1912/1915 1 1/2SM BR OVC002
     FM191500 21004KT 5SM BR BKN007
     FM191900 19004KT P6SM SCT010 SCT070
     FM200000 VRB03KT P6SM BKN070
     FM200400 11003KT 4SM BR SCT010 OVC070
     FM200600 10002KT 2SM -RA BR OVC009
      TEMPO 2006/2010 1 1/2SM -FZRA BR OVC006
     FM201000 07003KT 2SM -RA BR OVC004=

USA.gov is the U.S. government's official web portal to all federal, state and local government web resources and services.